Time,TemperatureF,DewpointF,PressureIn,WindDirection,WindDirectionDegrees,WindSpeedMPH,WindSpeedGustMPH,Humidity,HourlyPrecipIn,Conditions,Clouds,dailyrainin,SoftwareType,DateUTC
2013-11-08 00:00:00,33.8,27.0,30.17,ENE,60,0.0,3.0,76,0.00,,,0.00,weatherlink.com 1.10,2013-11-08 05:00:00,
2013-11-08 00:16:00,33.4,27.0,30.18,NNE,30,2.0,5.0,77,0.00,,,0.00,weatherlink.com 1.10,2013-11-08 05:16:00,
2013-11-08 00:31:00,33.1,27.0,30.18,NNW,341,3.0,7.0,78,0.00,,,0.00,weatherlink.com 1.10,2013-11-08 05:31:00,
2013-11-08 00:46:00,33.1,27.0,30.18,NE,54,2.0,8.0,78,0.00,,,0.00,weatherlink.com 1.10,2013-11-08 05:46:00,
2013-11-08 01:01:00,33.0,27.0,30.18,NE,45,2.0,7.0,78,0.00,,,0.00,weatherlink.com 1.10,2013-11-08 06:01:00,
2013-11-08 01:16:00,32.6,26.0,30.19,NNW,331,1.0,6.0,77,0.00,,,0.00,weatherlink.com 1.10,2013-11-08 06:16:00,
2013-11-08 01:31:00,32.6,26.0,30.18,NNE,25,2.0,6.0,76,0.00,,,0.00,weatherlink.com 1.10,2013-11-08 06:31:00,
2013-11-08 01:46:00,32.5,25.0,30.18,ENE,58,5.0,10.0,74,0.00,,,0.00,weatherlink.com 1.10,2013-11-08 06:46:00,
2013-11-08 02:01:00,32.7,25.0,30.18,North,351,4.0,12.0,72,0.00,,,0.00,weatherlink.com 1.10,2013-11-08 07:01:00,
2013-11-08 02:16:00,32.7,24.0,30.19,ENE,61,7.0,11.0,71,0.00,,,0.00,weatherlink.com 1.10,2013-11-08 07:16:00,
2013-11-08 02:31:00,32.7,24.0,30.19,NW,323,4.0,9.0,70,0.00,,,0.00,weatherlink.com 1.10,2013-11-08 07:31:00,
2013-11-08 02:46:00,32.6,24.0,30.20,NNW,332,2.0,9.0,71,0.00,,,0.00,weatherlink.com 1.10,2013-11-08 07:46:00,
2013-11-08 03:01:00,32.4,24.0,30.19,North,9,3.0,10.0,71,0.00,,,0.00,weatherlink.com 1.10,2013-11-08 08:01:00,
2013-11-08 03:16:00,32.4,24.0,30.20,West,267,4.0,10.0,72,0.00,,,0.00,weatherlink.com 1.10,2013-11-08 08:16:00,
2013-11-08 03:31:00,32.3,24.0,30.20,NW,314,4.0,10.0,71,0.00,,,0.00,weatherlink.com 1.10,2013-11-08 08:31:00,
2013-11-08 03:46:00,32.1,24.0,30.20,NE,42,1.0,10.0,72,0.00,,,0.00,weatherlink.com 1.10,2013-11-08 08:46:00,
2013-11-08 04:01:00,32.0,23.0,30.21,ESE,121,2.0,15.0,69,0.00,,,0.00,weatherlink.com 1.10,2013-11-08 09:01:00,
2013-11-08 04:16:00,32.0,22.0,30.21,NW,325,4.0,10.0,68,0.00,,,0.00,weatherlink.com 1.10,2013-11-08 09:16:00,
2013-11-08 04:31:00,32.2,22.0,30.21,South,178,2.0,12.0,66,0.00,,,0.00,weatherlink.com 1.10,2013-11-08 09:31:00,
2013-11-08 04:46:00,32.3,22.0,30.22,NE,44,3.0,7.0,65,0.00,,,0.00,weatherlink.com 1.10,2013-11-08 09:46:00,
2013-11-08 05:01:00,32.6,22.0,30.23,NE,51,5.0,11.0,64,0.00,,,0.00,weatherlink.com 1.10,2013-11-08 10:01:00,
2013-11-08 05:16:00,32.5,21.0,30.23,NE,45,4.0,10.0,64,0.00,,,0.00,weatherlink.com 1.10,2013-11-08 10:16:00,
2013-11-08 05:31:00,33.1,21.0,30.24,North,9,4.0,14.0,61,0.00,,,0.00,weatherlink.com 1.10,2013-11-08 10:31:00,
2013-11-08 05:40:00,33.2,20.4,30.24,North,355,4.0,4.0,59,0.00,,,0.00,Wunderground v.1.15,2013-11-08 10:40:00,
2013-11-08 05:45:00,33.2,20.4,30.24,NE,47,4.0,4.0,59,0.00,,,0.00,Wunderground v.1.15,2013-11-08 10:45:00,
2013-11-08 05:50:00,33.2,20.8,30.24,NE,35,4.0,4.0,60,0.00,,,0.00,Wunderground v.1.15,2013-11-08 10:50:00,
2013-11-08 05:55:00,33.0,21.0,30.24,WNW,289,5.0,5.0,61,0.00,,,0.00,Wunderground v.1.15,2013-11-08 10:55:00,
2013-11-08 06:00:00,32.9,21.3,30.24,ENE,59,5.0,5.0,62,0.00,,,0.00,Wunderground v.1.15,2013-11-08 11:00:00,
2013-11-08 06:10:00,32.6,21.0,30.25,East,87,4.0,4.0,62,0.00,,,0.00,Wunderground v.1.15,2013-11-08 11:10:00,
2013-11-08 06:17:00,32.6,21.0,30.25,WNW,296,1.0,12.0,63,0.00,,,0.00,weatherlink.com 1.10,2013-11-08 11:17:00,
2013-11-08 06:25:00,32.5,20.9,30.25,NNE,30,4.0,5.0,62,0.00,,,0.00,Wunderground v.1.15,2013-11-08 11:25:00,
2013-11-08 06:32:00,32.3,21.0,30.26,NE,37,3.0,16.0,64,0.00,,,0.00,weatherlink.com 1.10,2013-11-08 11:32:00,
2013-11-08 06:40:00,32.0,21.2,30.26,NE,53,3.0,3.0,64,0.00,,,0.00,Wunderground v.1.15,2013-11-08 11:40:00,
2013-11-08 06:45:00,31.9,21.5,30.26,East,84,3.0,9.0,65,0.00,,,0.00,Wunderground v.1.15,2013-11-08 11:45:00,
2013-11-08 06:50:00,32.0,21.2,30.26,NE,47,3.0,3.0,64,0.00,,,0.00,Wunderground v.1.15,2013-11-08 11:50:00,
2013-11-08 07:00:00,32.0,21.2,30.27,North,360,3.0,3.0,64,0.00,,,0.00,Wunderground v.1.15,2013-11-08 12:00:00,
2013-11-08 07:10:00,32.2,20.6,30.28,North,5,3.0,3.0,62,0.00,,,0.00,Wunderground v.1.15,2013-11-08 12:10:00,
2013-11-08 07:15:00,32.3,20.3,30.28,North,360,3.0,3.0,61,0.00,,,0.00,Wunderground v.1.15,2013-11-08 12:15:00,
2013-11-08 07:20:00,32.4,20.8,30.28,NNE,29,3.0,3.0,62,0.00,,,0.00,Wunderground v.1.15,2013-11-08 12:20:00,
2013-11-08 07:30:00,32.4,20.4,30.29,NE,45,3.0,11.0,61,0.00,,,0.00,Wunderground v.1.15,2013-11-08 12:30:00,
2013-11-08 07:36:00,32.6,20.0,30.29,WSW,241,2.0,13.0,61,0.00,,,0.00,weatherlink.com 1.10,2013-11-08 12:36:00,
2013-11-08 07:45:00,32.8,20.4,30.30,ENE,57,4.0,5.0,60,0.00,,,0.00,Wunderground v.1.15,2013-11-08 12:45:00,
2013-11-08 07:50:00,32.9,20.5,30.30,NNW,327,3.0,3.0,60,0.00,,,0.00,Wunderground v.1.15,2013-11-08 12:50:00,
2013-11-08 08:00:00,32.9,20.1,30.30,West,277,3.0,3.0,59,0.00,,,0.00,Wunderground v.1.15,2013-11-08 13:00:00,
2013-11-08 08:10:00,33.1,20.3,30.31,North,5,2.0,2.0,59,0.00,,,0.00,Wunderground v.1.15,2013-11-08 13:10:00,
2013-11-08 08:18:00,33.1,20.0,30.32,NE,42,1.0,7.0,59,0.00,,,0.00,weatherlink.com 1.10,2013-11-08 13:18:00,
2013-11-08 08:25:00,33.2,20.4,30.32,NNE,23,2.0,3.0,59,0.00,,,0.00,Wunderground v.1.15,2013-11-08 13:25:00,
2013-11-08 08:30:00,33.2,20.0,30.32,NE,39,2.0,2.0,58,0.00,,,0.00,Wunderground v.1.15,2013-11-08 13:30:00,
2013-11-08 08:36:00,33.4,19.0,30.32,North,360,3.0,7.0,56,0.00,,,0.00,weatherlink.com 1.10,2013-11-08 13:36:00,
2013-11-08 08:45:00,33.9,19.8,30.33,North,360,2.0,2.0,56,0.00,,,0.00,Wunderground v.1.15,2013-11-08 13:45:00,
2013-11-08 08:50:00,34.0,19.1,30.33,North,11,2.0,4.0,54,0.00,,,0.00,Wunderground v.1.15,2013-11-08 13:50:00,
2013-11-08 09:05:00,34.3,18.0,30.34,North,355,3.0,8.0,52,0.00,,,0.00,weatherlink.com 1.10,2013-11-08 14:05:00,
2013-11-08 09:15:00,34.6,17.4,30.33,NW,316,2.0,3.0,49,0.00,,,0.00,Wunderground v.1.15,2013-11-08 14:15:00,
2013-11-08 09:20:00,34.7,17.5,30.34,West,274,2.0,3.0,49,0.00,,,0.00,Wunderground v.1.15,2013-11-08 14:20:00,
2013-11-08 09:30:00,34.9,18.6,30.33,NW,320,2.0,2.0,51,0.00,,,0.00,Wunderground v.1.15,2013-11-08 14:30:00,
2013-11-08 09:36:00,35.1,18.0,30.34,West,274,2.0,4.0,49,0.00,,,0.00,weatherlink.com 1.10,2013-11-08 14:36:00,
2013-11-08 09:45:00,35.4,17.6,30.34,North,9,3.0,3.0,48,0.00,,,0.00,Wunderground v.1.15,2013-11-08 14:45:00,
2013-11-08 09:50:00,35.6,17.0,30.34,West,275,5.0,7.0,47,0.00,,,0.00,weatherlink.com 1.10,2013-11-08 14:50:00,
2013-11-08 09:55:00,35.9,16.6,30.34,NW,324,3.0,4.0,45,0.00,,,0.00,Wunderground v.1.15,2013-11-08 14:55:00,
2013-11-08 10:05:00,36.6,18.0,30.34,NE,44,2.0,7.0,48,0.00,,,0.00,weatherlink.com 1.10,2013-11-08 15:05:00,
2013-11-08 10:10:00,37.0,15.5,30.34,NNE,32,3.0,3.0,41,0.00,,,0.00,Wunderground v.1.15,2013-11-08 15:10:00,
2013-11-08 10:20:00,37.3,14.0,30.35,NE,40,4.0,6.0,39,0.00,,,0.00,weatherlink.com 1.10,2013-11-08 15:20:00,
2013-11-08 10:25:00,37.5,15.3,30.35,NNW,337,2.0,3.0,40,0.00,,,0.00,Wunderground v.1.15,2013-11-08 15:25:00,
2013-11-08 10:30:00,37.8,14.4,30.36,WSW,248,1.0,3.0,38,0.00,,,0.00,Wunderground v.1.15,2013-11-08 15:30:00,
2013-11-08 10:36:00,38.2,15.0,30.36,NW,307,1.0,5.0,39,0.00,,,0.00,weatherlink.com 1.10,2013-11-08 15:36:00,
2013-11-08 10:45:00,38.8,14.1,30.36,WSW,252,2.0,2.0,36,0.00,,,0.00,Wunderground v.1.15,2013-11-08 15:45:00,
2013-11-08 10:50:00,39.1,14.0,30.36,NW,317,0.0,4.0,36,0.00,,,0.00,weatherlink.com 1.10,2013-11-08 15:50:00,
2013-11-08 11:00:00,39.6,14.2,30.37,North,5,2.0,3.0,35,0.00,,,0.00,Wunderground v.1.15,2013-11-08 16:00:00,
2013-11-08 11:06:00,40.0,14.0,30.37,SW,227,0.0,5.0,34,0.00,,,0.00,weatherlink.com 1.10,2013-11-08 16:06:00,
2013-11-08 11:15:00,40.7,14.5,30.37,SW,232,2.0,4.0,34,0.00,,,0.00,Wunderground v.1.15,2013-11-08 16:15:00,
2013-11-08 11:20:00,40.9,14.0,30.37,WNW,298,3.0,3.0,33,0.00,,,0.00,Wunderground v.1.15,2013-11-08 16:20:00,
2013-11-08 11:30:00,41.4,14.4,30.37,NNE,17,2.0,4.0,33,0.00,,,0.00,Wunderground v.1.15,2013-11-08 16:30:00,
2013-11-08 11:36:00,41.7,13.0,30.37,SW,215,3.0,7.0,31,0.00,,,0.00,weatherlink.com 1.10,2013-11-08 16:36:00,
2013-11-08 11:45:00,42.3,15.2,30.36,WNW,296,2.0,2.0,33,0.00,,,0.00,Wunderground v.1.15,2013-11-08 16:45:00,
2013-11-08 11:51:00,42.3,14.0,30.36,NNW,344,1.0,4.0,32,0.00,,,0.00,weatherlink.com 1.10,2013-11-08 16:51:00,
2013-11-08 12:00:00,42.8,15.6,30.35,WNW,289,1.0,3.0,33,0.00,,,0.00,Wunderground v.1.15,2013-11-08 17:00:00,
2013-11-08 12:06:00,43.1,16.0,30.35,NW,312,2.0,5.0,33,0.00,,,0.00,weatherlink.com 1.10,2013-11-08 17:06:00,
2013-11-08 12:15:00,43.5,14.8,30.34,SW,225,2.0,3.0,31,0.00,,,0.00,Wunderground v.1.15,2013-11-08 17:15:00,
2013-11-08 12:20:00,44.0,13.7,30.34,NE,53,2.0,2.0,29,0.00,,,0.00,Wunderground v.1.15,2013-11-08 17:20:00,
2013-11-08 12:25:00,44.3,11.5,30.34,NE,42,2.0,3.0,26,0.00,,,0.00,Wunderground v.1.15,2013-11-08 17:25:00,
2013-11-08 12:35:00,45.1,12.2,30.34,NNW,335,2.0,3.0,26,0.00,,,0.00,Wunderground v.1.15,2013-11-08 17:35:00,
2013-11-08 12:40:00,45.4,11.6,30.33,WSW,253,2.0,3.0,25,0.00,,,0.00,Wunderground v.1.15,2013-11-08 17:40:00,
2013-11-08 12:50:00,46.0,14.7,30.34,NNW,331,2.0,3.0,28,0.00,,,0.00,Wunderground v.1.15,2013-11-08 17:50:00,
2013-11-08 12:55:00,46.1,12.2,30.33,WNW,286,1.0,3.0,25,0.00,,,0.00,Wunderground v.1.15,2013-11-08 17:55:00,
2013-11-08 13:00:00,46.3,11.4,30.33,NNE,32,1.0,2.0,24,0.00,,,0.00,Wunderground v.1.15,2013-11-08 18:00:00,
2013-11-08 13:07:00,47.3,14.0,30.33,NW,309,0.0,3.0,26,0.00,,,0.00,weatherlink.com 1.10,2013-11-08 18:07:00,
2013-11-08 13:15:00,48.3,15.0,30.33,North,355,1.0,3.0,26,0.00,,,0.00,Wunderground v.1.15,2013-11-08 18:15:00,
2013-11-08 13:20:00,48.6,13.4,30.33,South,175,2.0,2.0,24,0.00,,,0.00,Wunderground v.1.15,2013-11-08 18:20:00,
2013-11-08 13:25:00,48.7,15.3,30.32,SW,231,2.0,3.0,26,0.00,,,0.00,Wunderground v.1.15,2013-11-08 18:25:00,
2013-11-08 13:30:00,48.8,12.6,30.33,SSW,213,1.0,1.0,23,0.00,,,0.00,Wunderground v.1.15,2013-11-08 18:30:00,
2013-11-08 13:38:00,49.3,12.0,30.32,NNW,348,2.0,6.0,22,0.00,,,0.00,weatherlink.com 1.10,2013-11-08 18:38:00,
2013-11-08 13:45:00,49.9,12.5,30.32,WNW,291,1.0,2.0,22,0.00,,,0.00,Wunderground v.1.15,2013-11-08 18:45:00,
2013-11-08 13:50:00,50.0,15.5,30.32,WSW,242,1.0,3.0,25,0.00,,,0.00,Wunderground v.1.15,2013-11-08 18:50:00,
2013-11-08 14:00:00,50.2,12.8,30.32,NW,305,1.0,1.0,22,0.00,,,0.00,Wunderground v.1.15,2013-11-08 19:00:00,
2013-11-08 14:08:00,50.6,13.0,30.32,NW,306,1.0,3.0,22,0.00,,,0.00,weatherlink.com 1.10,2013-11-08 19:08:00,
2013-11-08 14:15:00,50.9,15.3,30.32,NW,325,1.0,1.0,24,0.00,,,0.00,Wunderground v.1.15,2013-11-08 19:15:00,
2013-11-08 14:20:00,50.9,15.3,30.32,WSW,244,2.0,2.0,24,0.00,,,0.00,Wunderground v.1.15,2013-11-08 19:20:00,
2013-11-08 14:30:00,50.9,10.0,30.32,NNW,340,1.0,1.0,19,0.00,,,0.00,Wunderground v.1.15,2013-11-08 19:30:00,
2013-11-08 14:39:00,50.5,12.0,30.32,SW,227,2.0,4.0,21,0.00,,,0.00,weatherlink.com 1.10,2013-11-08 19:39:00,
2013-11-08 14:45:00,50.7,12.1,30.32,NW,323,1.0,2.0,21,0.00,,,0.00,Wunderground v.1.15,2013-11-08 19:45:00,
2013-11-08 14:50:00,50.6,12.0,30.32,NW,323,1.0,2.0,21,0.00,,,0.00,Wunderground v.1.15,2013-11-08 19:50:00,
2013-11-08 15:00:00,50.7,15.2,30.32,NW,307,1.0,1.0,24,0.00,,,0.00,Wunderground v.1.15,2013-11-08 20:00:00,
2013-11-08 15:09:00,50.4,15.0,30.31,North,355,2.0,4.0,24,0.00,,,0.00,weatherlink.com 1.10,2013-11-08 20:09:00,
2013-11-08 15:15:00,50.0,13.6,30.31,NNW,336,2.0,3.0,23,0.00,,,0.00,Wunderground v.1.15,2013-11-08 20:15:00,
2013-11-08 15:20:00,49.7,15.2,30.31,West,270,2.0,2.0,25,0.00,,,0.00,Wunderground v.1.15,2013-11-08 20:20:00,
2013-11-08 15:30:00,49.6,14.2,30.31,NW,312,2.0,2.0,24,0.00,,,0.00,Wunderground v.1.15,2013-11-08 20:30:00,
2013-11-08 15:39:00,48.9,13.0,30.32,NNW,338,2.0,6.0,24,0.00,,,0.00,weatherlink.com 1.10,2013-11-08 20:39:00,
2013-11-08 15:45:00,48.8,15.4,30.31,West,271,2.0,3.0,26,0.00,,,0.00,Wunderground v.1.15,2013-11-08 20:45:00,
2013-11-08 15:55:00,48.2,14.0,30.31,North,11,3.0,6.0,25,0.00,,,0.00,weatherlink.com 1.10,2013-11-08 20:55:00,
2013-11-08 16:01:00,48.4,14.1,30.31,WNW,282,3.0,3.0,25,0.00,,,0.00,Wunderground v.1.15,2013-11-08 21:01:00,
2013-11-08 16:10:00,48.5,13.0,30.31,NW,326,4.0,6.0,24,0.00,,,0.00,weatherlink.com 1.10,2013-11-08 21:10:00,
2013-11-08 16:15:00,48.4,15.9,30.31,West,259,3.0,3.0,27,0.00,,,0.00,Wunderground v.1.15,2013-11-08 21:15:00,
2013-11-08 16:20:00,48.8,16.2,30.31,West,262,3.0,3.0,27,0.00,,,0.00,Wunderground v.1.15,2013-11-08 21:20:00,
2013-11-08 16:30:00,48.6,14.3,30.31,WSW,255,3.0,3.0,25,0.00,,,0.00,Wunderground v.1.15,2013-11-08 21:30:00,
2013-11-08 16:40:00,48.4,14.0,30.31,WSW,246,6.0,6.0,25,0.00,,,0.00,weatherlink.com 1.10,2013-11-08 21:40:00,
2013-11-08 16:50:00,47.6,14.3,30.31,West,265,3.0,3.0,26,0.00,,,0.00,Wunderground v.1.15,2013-11-08 21:50:00,
2013-11-08 16:55:00,47.5,13.4,30.31,NW,311,3.0,3.0,25,0.00,,,0.00,Wunderground v.1.15,2013-11-08 21:55:00,
2013-11-08 17:00:00,47.2,14.0,30.31,SW,227,3.0,3.0,26,0.00,,,0.00,Wunderground v.1.15,2013-11-08 22:00:00,
2013-11-08 17:10:00,46.3,13.0,30.32,West,264,2.0,7.0,26,0.00,,,0.00,weatherlink.com 1.10,2013-11-08 22:10:00,
2013-11-08 17:15:00,46.3,13.2,30.32,NW,309,3.0,3.0,26,0.00,,,0.00,Wunderground v.1.15,2013-11-08 22:15:00,
2013-11-08 17:25:00,45.8,13.0,30.32,WNW,297,0.0,5.0,26,0.00,,,0.00,weatherlink.com 1.10,2013-11-08 22:25:00,
2013-11-08 17:30:00,45.3,11.5,30.32,West,273,2.0,2.0,25,0.00,,,0.00,Wunderground v.1.15,2013-11-08 22:30:00,
2013-11-08 17:40:00,44.3,11.0,30.32,WSW,254,2.0,4.0,26,0.00,,,0.00,weatherlink.com 1.10,2013-11-08 22:40:00,
2013-11-08 17:50:00,43.8,11.9,30.31,WSW,254,0.0,0.0,27,0.00,,,0.00,Wunderground v.1.15,2013-11-08 22:50:00,
2013-11-08 17:55:00,43.7,11.8,30.32,WSW,254,0.0,0.0,27,0.00,,,0.00,Wunderground v.1.15,2013-11-08 22:55:00,
2013-11-08 18:05:00,43.6,11.8,30.31,WSW,254,0.0,0.0,27,0.00,,,0.00,Wunderground v.1.15,2013-11-08 23:05:00,
2013-11-08 18:10:00,43.6,11.8,30.31,WSW,254,0.0,0.0,27,0.00,,,0.00,Wunderground v.1.15,2013-11-08 23:10:00,
2013-11-08 18:20:00,43.4,12.4,30.32,WSW,254,0.0,0.0,28,0.00,,,0.00,Wunderground v.1.15,2013-11-08 23:20:00,
2013-11-08 18:25:00,43.5,12.5,30.32,WSW,254,0.0,0.0,28,0.00,,,0.00,Wunderground v.1.15,2013-11-08 23:25:00,
2013-11-08 18:35:00,43.4,12.4,30.33,WSW,254,0.0,0.0,28,0.00,,,0.00,Wunderground v.1.15,2013-11-08 23:35:00,
2013-11-08 18:40:00,43.4,11.6,30.32,WSW,254,0.0,1.0,27,0.00,,,0.00,Wunderground v.1.15,2013-11-08 23:40:00,
2013-11-08 18:50:00,43.2,11.4,30.32,WSW,254,0.0,0.0,27,0.00,,,0.00,Wunderground v.1.15,2013-11-08 23:50:00,
2013-11-08 18:56:00,43.0,12.0,30.33,WSW,254,0.0,0.0,28,0.00,,,0.00,weatherlink.com 1.10,2013-11-08 23:56:00,
2013-11-08 19:05:00,42.6,12.5,30.32,WSW,254,0.0,0.0,29,0.00,,,0.00,Wunderground v.1.15,2013-11-09 00:05:00,
2013-11-08 19:10:00,42.3,12.3,30.33,WSW,254,0.0,0.0,29,0.00,,,0.00,Wunderground v.1.15,2013-11-09 00:10:00,
2013-11-08 19:20:00,41.9,12.7,30.32,WSW,254,0.0,0.0,30,0.00,,,0.00,Wunderground v.1.15,2013-11-09 00:20:00,
2013-11-08 19:27:00,41.7,13.0,30.32,WSW,254,0.0,1.0,31,0.00,,,0.00,weatherlink.com 1.10,2013-11-09 00:27:00,
2013-11-08 19:35:00,41.5,13.1,30.32,WSW,254,0.0,0.0,31,0.00,,,0.00,Wunderground v.1.15,2013-11-09 00:35:00,
2013-11-08 19:42:00,41.3,12.0,30.32,WSW,254,0.0,1.0,30,0.00,,,0.00,weatherlink.com 1.10,2013-11-09 00:42:00,
2013-11-08 19:50:00,41.1,12.7,30.33,WSW,254,0.0,0.0,31,0.00,,,0.00,Wunderground v.1.15,2013-11-09 00:50:00,
2013-11-08 19:57:00,40.9,12.0,30.33,WSW,254,0.0,0.0,30,0.00,,,0.00,weatherlink.com 1.10,2013-11-09 00:57:00,
2013-11-08 20:05:00,40.6,13.0,30.33,WSW,254,0.0,0.0,32,0.00,,,0.00,Wunderground v.1.15,2013-11-09 01:05:00,
2013-11-08 20:10:00,40.3,13.4,30.33,WSW,254,0.0,0.0,33,0.00,,,0.00,Wunderground v.1.15,2013-11-09 01:10:00,
2013-11-08 20:20:00,39.6,14.8,30.33,WSW,254,0.0,0.0,36,0.00,,,0.00,Wunderground v.1.15,2013-11-09 01:20:00,
2013-11-08 20:30:00,39.1,15.6,30.33,WSW,254,0.0,0.0,38,0.00,,,0.00,Wunderground v.1.15,2013-11-09 01:30:00,
2013-11-08 20:35:00,38.8,15.3,30.33,WSW,254,0.0,0.0,38,0.00,,,0.00,Wunderground v.1.15,2013-11-09 01:35:00,
2013-11-08 20:42:00,38.6,15.0,30.33,WSW,254,0.0,1.0,39,0.00,,,0.00,weatherlink.com 1.10,2013-11-09 01:42:00,
2013-11-08 20:57:00,38.3,15.0,30.33,WSW,254,0.0,0.0,39,0.00,,,0.00,weatherlink.com 1.10,2013-11-09 01:57:00,
2013-11-08 21:12:00,38.1,15.0,30.33,WSW,254,0.0,0.0,39,0.00,,,0.00,weatherlink.com 1.10,2013-11-09 02:12:00,
2013-11-08 21:27:00,37.9,16.0,30.33,WSW,254,0.0,1.0,41,0.00,,,0.00,weatherlink.com 1.10,2013-11-09 02:27:00,
2013-11-08 21:42:00,37.9,15.0,30.33,West,260,1.0,2.0,40,0.00,,,0.00,weatherlink.com 1.10,2013-11-09 02:42:00,
2013-11-08 21:57:00,38.4,16.0,30.33,West,267,0.0,2.0,41,0.00,,,0.00,weatherlink.com 1.10,2013-11-09 02:57:00,
2013-11-08 22:12:00,38.7,17.0,30.34,West,267,0.0,1.0,42,0.00,,,0.00,weatherlink.com 1.10,2013-11-09 03:12:00,
2013-11-08 22:27:00,39.3,19.0,30.34,WNW,295,2.0,2.0,45,0.00,,,0.00,weatherlink.com 1.10,2013-11-09 03:27:00,
2013-11-08 22:42:00,39.8,20.0,30.34,WNW,295,0.0,1.0,45,0.00,,,0.00,weatherlink.com 1.10,2013-11-09 03:42:00,
2013-11-08 22:57:00,39.9,20.0,30.34,WNW,295,0.0,1.0,46,0.00,,,0.00,weatherlink.com 1.10,2013-11-09 03:57:00,
2013-11-08 23:12:00,40.2,21.0,30.34,WNW,295,1.0,2.0,46,0.00,,,0.00,weatherlink.com 1.10,2013-11-09 04:12:00,
2013-11-08 23:27:00,40.3,20.0,30.34,NE,46,0.0,4.0,45,0.00,,,0.00,weatherlink.com 1.10,2013-11-09 04:27:00,
2013-11-08 23:42:00,39.8,21.0,30.35,NNE,33,0.0,3.0,48,0.00,,,0.00,weatherlink.com 1.10,2013-11-09 04:42:00,
2013-11-08 23:57:00,39.4,22.0,30.35,SSW,194,0.0,4.0,51,0.00,,,0.00,weatherlink.com 1.10,2013-11-09 04:57:00,